createdAt,value
2023-01-23T00:04:43.257Z,102001.38
2023-01-23T00:09:46.468Z,102006.53
2023-01-23T00:14:51.089Z,102003.03
2023-01-23T00:19:54.676Z,101996.19
2023-01-23T00:24:57.863Z,102007.28
2023-01-23T00:30:02.337Z,102005.63
2023-01-23T00:35:06.172Z,102016.09
2023-01-23T00:40:10.823Z,102012.72
2023-01-23T00:45:15.721Z,102010.00
2023-01-23T00:50:19.595Z,102015.19
2023-01-23T00:55:23.187Z,102010.97
2023-01-23T01:00:28.406Z,102022.84
2023-01-23T01:05:31.973Z,102020.22
2023-01-23T01:10:35.785Z,102028.03
2023-01-23T01:15:40.436Z,102033.25
2023-01-23T01:20:44.044Z,102037.44
2023-01-23T01:25:47.696Z,102033.88
2023-01-23T01:30:52.396Z,102044.22
2023-01-23T01:35:57.112Z,102041.69
2023-01-23T01:41:00.195Z,102049.47
2023-01-23T01:46:24.734Z,102055.53
2023-01-23T01:51:33.683Z,102052.06
2023-01-23T01:56:42.731Z,102070.22
2023-01-23T02:01:51.294Z,102072.66
2023-01-23T02:06:56.612Z,102081.22
2023-01-23T02:11:59.827Z,102091.66
2023-01-23T02:17:04.406Z,102086.41
2023-01-23T02:22:22.532Z,102083.81
2023-01-23T02:27:27.214Z,102093.22
2023-01-23T02:32:31.484Z,102096.06
2023-01-23T02:37:35.640Z,102084.78
2023-01-23T02:42:43.022Z,102097.56
2023-01-23T02:47:47.881Z,102095.91
2023-01-23T02:52:54.738Z,102092.50
2023-01-23T02:58:22.459Z,102098.66
2023-01-23T03:03:25.690Z,102102.31
2023-01-23T03:08:33.695Z,102102.44
2023-01-23T03:13:38.349Z,102102.47
2023-01-23T03:18:53.639Z,102110.09
2023-01-23T03:23:57.959Z,102111.09
2023-01-23T03:29:21.648Z,102098.91
2023-01-23T03:34:24.729Z,102108.31
2023-01-23T03:39:45.654Z,102110.94
2023-01-23T03:44:50.262Z,102123.91
2023-01-23T03:49:53.341Z,102124.69
2023-01-23T03:54:56.430Z,102133.22
2023-01-23T04:00:00.857Z,102127.09
2023-01-23T04:05:04.207Z,102127.94
2023-01-23T04:10:07.891Z,102132.13
2023-01-23T04:15:13.258Z,102127.91
2023-01-23T04:20:17.514Z,102133.78
2023-01-23T04:25:24.546Z,102122.75
2023-01-23T04:30:29.877Z,102117.63
2023-01-23T04:35:33.166Z,102128.63
2023-01-23T04:40:36.312Z,102117.31
2023-01-23T04:45:41.404Z,102116.59
2023-01-23T04:50:44.655Z,102137.16
2023-01-23T04:55:50.991Z,102132.94
2023-01-23T05:00:55.642Z,102148.44
2023-01-23T05:05:59.272Z,102158.94
2023-01-23T05:11:02.519Z,102176.16
2023-01-23T05:16:08.160Z,102175.25
2023-01-23T05:21:11.516Z,102173.50
2023-01-23T05:26:14.962Z,102176.00
2023-01-23T05:31:19.822Z,102186.38
2023-01-23T05:36:23.192Z,102188.13
2023-01-23T05:41:26.356Z,102186.28
2023-01-23T05:46:31.045Z,102192.44
2023-01-23T05:51:34.296Z,102189.81
2023-01-23T05:56:37.468Z,102187.31
2023-01-23T06:01:42.094Z,102190.06
2023-01-23T06:06:45.333Z,102197.81
2023-01-23T06:11:49.429Z,102201.28
2023-01-23T06:16:54.045Z,102209.81
2023-01-23T06:21:57.945Z,102207.06
2023-01-23T06:27:01.498Z,102218.44
2023-01-23T06:32:06.899Z,102225.28
2023-01-23T06:37:13.234Z,102226.94
2023-01-23T06:42:16.331Z,102228.66
2023-01-23T06:47:24.523Z,102235.50
2023-01-23T06:52:27.599Z,102238.19
2023-01-23T06:57:35.127Z,102245.94
2023-01-23T07:02:40.575Z,102241.66
2023-01-23T07:07:43.868Z,102246.75
2023-01-23T07:12:46.902Z,102255.41
2023-01-23T07:17:51.455Z,102269.16
2023-01-23T07:22:54.758Z,102274.28
2023-01-23T07:27:57.833Z,102282.16
2023-01-23T07:33:02.744Z,102284.66
2023-01-23T07:38:05.910Z,102282.78
2023-01-23T07:43:08.909Z,102305.31
2023-01-23T07:48:13.547Z,102303.56
2023-01-23T07:53:16.699Z,102308.63
2023-01-23T07:58:19.863Z,102313.75
2023-01-23T08:03:24.397Z,102330.84
2023-01-23T08:08:27.511Z,102330.84
2023-01-23T08:13:30.601Z,102328.09
2023-01-23T08:18:35.210Z,102322.31
2023-01-23T08:23:38.356Z,102336.25
2023-01-23T08:28:43.058Z,102339.56
2023-01-23T08:33:47.650Z,102346.53
2023-01-23T08:38:50.875Z,102344.81
2023-01-23T08:44:01.611Z,102359.44
2023-01-23T08:49:06.905Z,102347.47
2023-01-23T08:54:10.230Z,102360.19
2023-01-23T08:59:13.484Z,102365.44
2023-01-23T09:04:18.192Z,102363.75
2023-01-23T09:09:21.493Z,102363.59
2023-01-23T09:14:24.707Z,102380.06
2023-01-23T09:19:31.847Z,102379.09
2023-01-23T09:24:35.117Z,102380.03
2023-01-23T09:29:38.572Z,102365.28
2023-01-23T09:34:43.192Z,102366.06
2023-01-23T09:39:46.395Z,102372.81
2023-01-23T09:44:54.123Z,102383.94
2023-01-23T09:50:03.265Z,102387.41
2023-01-23T09:55:14.918Z,102379.81
2023-01-23T10:00:23.990Z,102377.06
2023-01-23T10:05:43.488Z,102378.78
2023-01-23T10:10:59.841Z,102368.28
2023-01-23T10:16:20.014Z,102368.09
2023-01-23T10:21:30.570Z,102365.13
2023-01-23T10:26:37.925Z,102363.25
2023-01-23T10:31:45.740Z,102358.63
2023-01-23T10:37:06.981Z,102357.63
2023-01-23T10:42:13.129Z,102354.84
2023-01-23T10:47:22.065Z,102357.34
2023-01-23T10:52:36.592Z,102352.97
2023-01-23T10:57:48.534Z,102343.41
2023-01-23T11:02:52.064Z,102350.28
2023-01-23T11:07:56.735Z,102351.81
2023-01-23T11:13:01.047Z,102348.38
2023-01-23T11:18:29.217Z,102350.88
2023-01-23T11:23:35.740Z,102349.00
2023-01-23T11:28:49.381Z,102357.59
2023-01-23T11:33:59.077Z,102346.47
2023-01-23T11:39:16.870Z,102348.31
2023-01-23T11:44:23.118Z,102345.44
2023-01-23T11:49:43.554Z,102341.13
2023-01-23T11:55:03.931Z,102338.56
2023-01-23T12:00:22.029Z,102331.53
2023-01-23T12:06:06.057Z,102352.06
2023-01-23T12:11:22.414Z,102338.44
2023-01-23T12:16:34.646Z,102326.31
2023-01-23T12:21:45.555Z,102327.06
2023-01-23T12:27:02.719Z,102338.44
2023-01-23T12:32:18.760Z,102329.97
2023-01-23T12:37:46.335Z,102334.25
2023-01-23T12:42:55.312Z,102326.38
2023-01-23T12:48:06.149Z,102334.06
2023-01-23T12:53:12.385Z,102335.84
2023-01-23T12:58:19.822Z,102337.63
2023-01-23T13:03:59.305Z,102344.44
2023-01-23T13:09:17.867Z,102335.16
2023-01-23T13:15:03.203Z,102337.72
2023-01-23T13:20:46.071Z,102339.53
2023-01-23T13:25:49.523Z,102333.31
2023-01-23T13:31:03.567Z,102322.00
2023-01-23T13:36:14.398Z,102321.19
2023-01-23T13:41:31.006Z,102325.63
2023-01-23T14:25:18.108Z,102332.88
2023-01-23T14:30:27.188Z,102335.63
2023-01-23T14:35:33.843Z,102333.03
2023-01-23T14:40:49.405Z,102337.53
2023-01-23T14:46:02.482Z,102352.25
2023-01-23T14:51:10.757Z,102349.75
2023-01-23T14:56:14.651Z,102350.56
2023-01-23T15:01:18.231Z,102351.16
2023-01-23T15:06:24.649Z,102362.53
2023-01-23T15:11:29.349Z,102364.22
2023-01-23T15:16:38.253Z,102372.97
2023-01-23T15:21:43.451Z,102367.72
2023-01-23T15:27:05.454Z,102362.56
2023-01-23T15:32:18.146Z,102368.78
2023-01-23T15:37:25.497Z,102373.16
2023-01-23T15:42:32.538Z,102373.97
2023-01-23T15:47:36.154Z,102375.06
2023-01-23T15:52:50.032Z,102376.75
2023-01-23T15:57:53.597Z,102385.41
2023-01-23T16:03:00.006Z,102369.94
2023-01-23T16:08:06.957Z,102378.59
2023-01-23T16:13:17.127Z,102391.41
2023-01-23T16:18:20.767Z,102392.47
2023-01-23T16:23:25.936Z,102395.28
2023-01-23T16:28:30.715Z,102408.06
2023-01-23T16:33:33.936Z,102405.63
2023-01-23T16:38:38.744Z,102410.75
2023-01-23T16:43:44.510Z,102412.56
2023-01-23T16:48:50.605Z,102418.66
2023-01-23T16:54:00.725Z,102414.22
2023-01-23T16:59:07.890Z,102418.56
2023-01-23T17:04:13.785Z,102432.41
2023-01-23T17:09:19.131Z,102422.81
2023-01-23T17:14:25.948Z,102431.53
2023-01-23T17:19:35.233Z,102433.25
2023-01-23T17:24:43.405Z,102422.16
2023-01-23T17:29:51.627Z,102423.75
2023-01-23T17:34:57.810Z,102423.84
2023-01-23T17:40:02.441Z,102427.25
2023-01-23T17:45:06.023Z,102416.16
2023-01-23T17:50:19.218Z,102419.63
2023-01-23T17:55:28.395Z,102424.03
2023-01-23T18:00:31.551Z,102417.97
2023-01-23T18:05:45.070Z,102429.94
2023-01-23T18:11:02.475Z,102432.59
2023-01-23T18:16:15.442Z,102426.63
2023-01-23T18:21:20.710Z,102427.56
2023-01-23T18:26:45.794Z,102430.91
2023-01-23T18:32:02.586Z,102441.31
2023-01-23T18:37:15.648Z,102438.91
2023-01-23T18:42:25.479Z,102438.81
2023-01-23T18:47:29.234Z,102441.34
2023-01-23T18:52:45.975Z,102455.22
2023-01-23T18:58:28.300Z,102452.47
2023-01-23T19:03:43.636Z,102456.69
2023-01-23T19:08:47.979Z,102452.44
2023-01-23T19:14:04.663Z,102454.09
2023-01-23T19:19:21.586Z,102457.72
2023-01-23T19:24:39.743Z,102456.03
2023-01-23T19:29:45.444Z,102462.91
2023-01-23T19:34:48.632Z,102462.91
2023-01-23T19:39:51.819Z,102463.00
2023-01-23T19:44:56.359Z,102459.53
2023-01-23T19:49:59.485Z,102463.06
2023-01-23T19:55:02.714Z,102462.94
2023-01-23T20:00:10.004Z,102458.63
2023-01-23T20:05:13.129Z,102460.19
2023-01-23T20:10:16.705Z,102464.53
2023-01-23T20:15:24.099Z,102464.63
2023-01-23T20:20:27.436Z,102462.03
2023-01-23T20:25:30.760Z,102466.31
2023-01-23T20:30:35.347Z,102472.31
2023-01-23T20:35:39.738Z,102471.47
2023-01-23T20:40:42.869Z,102468.88
2023-01-23T20:45:48.751Z,102471.41
2023-01-23T20:50:54.386Z,102485.97
2023-01-23T20:55:59.053Z,102484.31
2023-01-23T21:01:03.686Z,102480.00
2023-01-23T21:06:07.225Z,102486.03
2023-01-23T21:11:12.262Z,102484.44
2023-01-23T21:16:18.234Z,102488.78
2023-01-23T21:21:23.352Z,102489.59
2023-01-23T21:26:28.541Z,102496.56
2023-01-23T21:31:37.130Z,102481.91
2023-01-23T21:36:42.035Z,102491.38
2023-01-23T21:41:46.059Z,102482.72
2023-01-23T21:46:50.789Z,102480.19
2023-01-23T21:51:54.031Z,102474.19
2023-01-23T21:56:57.336Z,102478.59
2023-01-23T22:02:02.383Z,102482.91
2023-01-23T22:07:05.681Z,102492.28
2023-01-23T22:12:09.301Z,102477.63
2023-01-23T22:17:13.992Z,102491.38
2023-01-23T22:22:18.263Z,102491.47
2023-01-23T22:27:23.287Z,102492.28
2023-01-23T22:32:27.958Z,102482.06
2023-01-23T22:37:34.430Z,102481.09
2023-01-23T22:42:39.959Z,102489.00
2023-01-23T22:47:44.555Z,102481.28
2023-01-23T22:52:48.013Z,102479.59
2023-01-23T22:57:53.590Z,102476.03
2023-01-23T23:02:58.626Z,102479.47
2023-01-23T23:08:02.190Z,102473.53
2023-01-23T23:13:06.789Z,102475.28
2023-01-23T23:18:11.931Z,102483.84
2023-01-23T23:23:15.220Z,102479.50
2023-01-23T23:28:18.440Z,102488.00
2023-01-23T23:33:23.203Z,102476.84
2023-01-23T23:38:26.471Z,102478.44
2023-01-23T23:43:30.551Z,102482.88
2023-01-23T23:48:37.702Z,102486.50
2023-01-23T23:53:41.076Z,102483.84
2023-01-23T23:58:44.376Z,102484.59
